Time;durP1;ratioP1;P1;durP2;ratioP2;P2;SDS_P1;SDS_P2;PMS_P1;PMS_P2;Temp;Humidity;BMP_temperature;BMP_pressure;BME280_temperature;BME280_humidity;BME280_pressure;Samples;Min_cycle;Max_cycle;Signal;HPM_P1;HPM_P2
2022/03/18 00:01:21;;;;;;;42.00;30.27;;;9.50;1.00;;;;;;4973254;28;20199;-61
2022/03/18 00:03:46;;;;;;;40.83;30.73;;;9.50;1.00;;;;;;4980033;28;20503;-62
2022/03/18 00:06:16;;;;;;;41.83;30.77;;;9.50;1.00;;;;;;4982472;28;20251;-61
2022/03/18 00:08:42;;;;;;;41.00;30.20;;;9.50;1.00;;;;;;4992903;28;20180;-62
2022/03/18 00:11:08;;;;;;;38.20;28.90;;;9.50;1.00;;;;;;4991307;28;20466;-62
2022/03/18 00:13:34;;;;;;;39.10;27.43;;;9.50;1.00;;;;;;4989519;28;20483;-62
2022/03/18 00:16:00;;;;;;;39.67;28.93;;;9.50;1.00;;;;;;4989821;28;20470;-62
2022/03/18 00:18:25;;;;;;;38.17;27.07;;;9.50;1.00;;;;;;4987981;28;20185;-62
2022/03/18 00:20:51;;;;;;;37.97;26.20;;;9.50;1.00;;;;;;4991352;28;20968;-61
2022/03/18 00:23:17;;;;;;;37.47;27.00;;;9.50;1.00;;;;;;4989863;28;20214;-62
2022/03/18 00:25:42;;;;;;;36.77;26.50;;;9.40;1.00;;;;;;4990412;28;20263;-62
2022/03/18 00:28:08;;;;;;;33.07;24.80;;;9.40;1.00;;;;;;4990262;28;20176;-62
2022/03/18 00:30:34;;;;;;;35.37;24.67;;;9.30;1.00;;;;;;4981664;28;20181;-62
2022/03/18 00:32:59;;;;;;;30.80;22.73;;;9.40;1.00;;;;;;4985972;28;20180;-61
2022/03/18 00:35:25;;;;;;;29.13;21.10;;;9.30;1.00;;;;;;4987233;28;20523;-62
2022/03/18 00:37:50;;;;;;;33.27;23.47;;;9.30;1.00;;;;;;4987849;28;20195;-62
2022/03/18 00:40:16;;;;;;;32.37;22.10;;;9.20;1.00;;;;;;4989963;28;21046;-63
2022/03/18 00:42:41;;;;;;;28.07;20.37;;;9.20;1.00;;;;;;4990469;28;20329;-62
2022/03/18 00:45:07;;;;;;;28.70;20.90;;;9.20;1.00;;;;;;4989139;28;20247;-63
2022/03/18 00:53:02;;;;;;;24.13;17.63;;;9.20;1.00;;;;;;4989570;28;20542;-63
2022/03/18 00:55:27;;;;;;;24.37;17.40;;;9.20;1.00;;;;;;4990176;28;20506;-63
2022/03/18 00:57:53;;;;;;;28.30;19.10;;;9.10;1.00;;;;;;4978949;28;20442;-62
2022/03/18 01:00:18;;;;;;;26.53;18.40;;;9.10;1.00;;;;;;4989660;28;20179;-62
2022/03/18 01:02:44;;;;;;;27.97;18.97;;;9.10;1.00;;;;;;4985320;28;20192;-63
2022/03/18 01:05:09;;;;;;;25.80;18.73;;;9.10;1.00;;;;;;4989647;28;20211;-61
2022/03/18 01:07:35;;;;;;;26.17;18.40;;;9.10;1.00;;;;;;4990686;28;20254;-62
2022/03/18 01:10:01;;;;;;;28.00;17.87;;;9.10;1.00;;;;;;4989586;28;20181;-63
2022/03/18 01:12:26;;;;;;;23.80;17.20;;;9.10;1.00;;;;;;4987811;28;20192;-62
2022/03/18 01:14:53;;;;;;;27.20;17.83;;;9.10;1.00;;;;;;4981886;28;20946;-62
2022/03/18 01:17:18;;;;;;;23.67;16.70;;;9.00;1.00;;;;;;4987910;28;20453;-62
2022/03/18 01:19:44;;;;;;;23.97;17.03;;;9.00;1.00;;;;;;4989308;28;20442;-62
2022/03/18 01:22:10;;;;;;;23.50;17.20;;;9.00;1.00;;;;;;4988742;28;20524;-63
2022/03/18 01:24:36;;;;;;;24.50;16.67;;;9.00;1.00;;;;;;4989245;28;20204;-63
2022/03/18 01:27:03;;;;;;;24.17;16.17;;;9.00;1.00;;;;;;4989773;28;20208;-62
2022/03/18 01:29:29;;;;;;;18.93;15.87;;;9.00;1.00;;;;;;4989340;28;20961;-63
2022/03/18 01:31:54;;;;;;;24.20;16.93;;;8.90;1.00;;;;;;4990651;28;20443;-63
2022/03/18 01:34:20;;;;;;;24.10;16.50;;;8.90;1.00;;;;;;4987857;28;20212;-63
2022/03/18 01:36:45;;;;;;;21.53;15.50;;;9.00;1.00;;;;;;4990259;28;20654;-63
2022/03/18 01:39:12;;;;;;;22.73;16.07;;;8.90;1.00;;;;;;4980542;28;20193;-63
2022/03/18 01:41:39;;;;;;;24.13;15.73;;;8.90;1.00;;;;;;4986814;28;20184;-63
2022/03/18 01:44:08;;;;;;;24.17;16.57;;;8.90;1.00;;;;;;4989644;28;20482;-63
2022/03/18 01:46:33;;;;;;;22.37;15.40;;;8.90;1.00;;;;;;4988488;28;20431;-63
2022/03/18 01:48:59;;;;;;;20.13;14.27;;;8.80;1.00;;;;;;4987540;28;20819;-63
2022/03/18 01:51:24;;;;;;;23.73;15.07;;;8.80;1.00;;;;;;4991345;28;20208;-63
2022/03/18 01:54:44;;;;;;;24.53;16.20;;;8.80;1.00;;;;;;4988728;28;20203;-63
2022/03/18 01:56:36;;;;;;;23.07;15.67;;;8.80;1.00;;;;;;4988836;28;20180;-63
2022/03/18 01:59:02;;;;;;;24.43;15.60;;;8.80;1.00;;;;;;4986894;28;20526;-63
2022/03/18 02:01:27;;;;;;;24.60;15.43;;;8.80;1.00;;;;;;4989731;28;21057;-63
2022/03/18 02:03:53;;;;;;;23.33;15.40;;;8.80;1.00;;;;;;4986770;28;20745;-63
2022/03/18 02:06:18;;;;;;;21.17;13.60;;;8.70;1.00;;;;;;4989792;28;20215;-62
2022/03/18 02:08:47;;;;;;;21.20;14.70;;;8.70;1.00;;;;;;4988410;28;20181;-63
2022/03/18 02:11:13;;;;;;;23.53;14.40;;;8.80;1.00;;;;;;4989609;28;20188;-63
2022/03/18 02:13:39;;;;;;;21.63;14.03;;;8.80;1.00;;;;;;4989491;28;20475;-63
2022/03/18 02:16:05;;;;;;;21.57;14.30;;;8.70;1.00;;;;;;4988180;28;20453;-62
2022/03/18 02:18:30;;;;;;;20.53;13.60;;;8.70;1.00;;;;;;4987938;28;20188;-63
2022/03/18 02:20:56;;;;;;;20.50;14.90;;;8.70;1.00;;;;;;4989390;28;20185;-63
2022/03/18 02:23:21;;;;;;;20.80;14.37;;;8.70;1.00;;;;;;4989704;28;20240;-64
2022/03/18 02:25:47;;;;;;;20.47;14.00;;;8.70;1.00;;;;;;4989449;28;20267;-62
2022/03/18 02:28:13;;;;;;;22.37;16.23;;;8.70;1.00;;;;;;4990972;28;20243;-63
2022/03/18 02:30:39;;;;;;;21.87;15.60;;;8.70;1.00;;;;;;4993813;28;20913;-63
2022/03/18 02:33:04;;;;;;;21.20;14.47;;;8.60;1.00;;;;;;4991991;28;20271;-63
2022/03/18 02:35:30;;;;;;;19.27;14.20;;;8.60;1.00;;;;;;4993035;28;20223;-61
2022/03/18 02:37:57;;;;;;;19.90;14.53;;;8.60;1.00;;;;;;4992778;28;20208;-62
2022/03/18 02:40:24;;;;;;;21.30;14.17;;;8.60;1.00;;;;;;4990947;28;20176;-63
2022/03/18 02:42:50;;;;;;;18.90;13.80;;;8.60;1.00;;;;;;4992424;28;20913;-63
2022/03/18 02:45:15;;;;;;;21.10;14.97;;;8.60;1.00;;;;;;4990529;28;20451;-61
2022/03/18 02:47:42;;;;;;;22.30;14.97;;;8.60;1.00;;;;;;4994118;28;20176;-62
2022/03/18 02:50:08;;;;;;;20.27;15.50;;;8.60;1.00;;;;;;4991421;28;20200;-63
2022/03/18 02:52:34;;;;;;;21.10;15.40;;;8.60;1.00;;;;;;4992292;28;20541;-63
2022/03/18 02:55:00;;;;;;;21.53;15.50;;;8.70;1.00;;;;;;4991758;28;20439;-63
2022/03/18 02:57:25;;;;;;;20.50;14.27;;;8.60;1.00;;;;;;4989700;28;20184;-63
2022/03/18 02:59:51;;;;;;;21.43;14.63;;;8.60;1.00;;;;;;4991279;28;20193;-63
2022/03/18 03:02:16;;;;;;;22.83;14.70;;;8.60;1.00;;;;;;4992040;28;20184;-63
2022/03/18 03:10:11;;;;;;;25.70;15.30;;;8.50;1.00;;;;;;4990192;28;20474;-62
2022/03/18 03:12:38;;;;;;;21.47;15.17;;;8.60;1.00;;;;;;4990990;28;20526;-61
2022/03/18 03:15:04;;;;;;;23.63;16.37;;;8.50;1.00;;;;;;4993004;28;20487;-63
2022/03/18 03:17:30;;;;;;;21.20;15.50;;;8.60;1.00;;;;;;4996902;28;20498;-61
2022/03/18 03:19:56;;;;;;;24.00;16.03;;;8.50;1.00;;;;;;4991751;28;20934;-62
2022/03/18 03:22:21;;;;;;;25.07;16.40;;;8.50;1.00;;;;;;4991590;28;20207;-63
2022/03/18 03:24:47;;;;;;;20.27;15.30;;;8.60;1.00;;;;;;4990383;28;20686;-63
2022/03/18 03:27:13;;;;;;;24.10;15.73;;;8.50;1.00;;;;;;4991782;28;20715;-63
2022/03/18 03:29:39;;;;;;;24.53;16.40;;;8.60;1.00;;;;;;4991190;28;20887;-63
2022/03/18 03:32:04;;;;;;;24.93;16.20;;;8.50;1.00;;;;;;4992118;28;20180;-63
2022/03/18 03:34:30;;;;;;;25.90;17.10;;;8.60;1.00;;;;;;4988736;28;20600;-62
2022/03/18 03:36:55;;;;;;;22.57;16.07;;;8.50;1.00;;;;;;4990896;28;20215;-62
2022/03/18 03:39:21;;;;;;;22.53;15.10;;;8.50;1.00;;;;;;4989376;28;20820;-62
2022/03/18 03:41:46;;;;;;;25.93;15.30;;;8.50;1.00;;;;;;4990219;28;20288;-63
2022/03/18 03:44:12;;;;;;;23.53;14.83;;;8.50;1.00;;;;;;4990684;28;20224;-63
2022/03/18 03:46:38;;;;;;;22.30;15.20;;;8.50;1.00;;;;;;4990836;28;20188;-63
2022/03/18 03:49:03;;;;;;;23.23;15.70;;;8.50;1.00;;;;;;4989027;28;20194;-63
2022/03/18 03:51:29;;;;;;;21.80;15.23;;;8.50;1.00;;;;;;4990859;28;20192;-64
2022/03/18 03:53:55;;;;;;;24.50;17.07;;;8.60;1.00;;;;;;4989840;28;20760;-63
2022/03/18 03:56:20;;;;;;;23.23;16.40;;;8.50;1.00;;;;;;4991077;28;20435;-63
2022/03/18 03:58:46;;;;;;;27.00;16.53;;;8.50;1.00;;;;;;4989696;28;20211;-63
2022/03/18 04:01:11;;;;;;;26.67;17.30;;;8.50;1.00;;;;;;4991578;28;20258;-63
2022/03/18 04:03:37;;;;;;;25.30;17.80;;;8.50;1.00;;;;;;4990840;28;20207;-64
2022/03/18 04:06:03;;;;;;;27.33;17.90;;;8.50;1.00;;;;;;4989069;28;20940;-64
2022/03/18 04:08:30;;;;;;;33.23;20.33;;;8.50;1.00;;;;;;4996132;28;20443;-64
2022/03/18 04:10:55;;;;;;;27.03;19.70;;;8.50;1.00;;;;;;4991200;28;20243;-62
2022/03/18 04:13:21;;;;;;;29.30;20.67;;;8.50;1.00;;;;;;4989134;28;20448;-63
2022/03/18 04:15:48;;;;;;;33.23;22.33;;;8.50;1.00;;;;;;4988107;28;20262;-62
2022/03/18 04:18:13;;;;;;;31.93;22.50;;;8.50;1.00;;;;;;4989755;28;20700;-63
2022/03/18 04:20:39;;;;;;;31.10;21.40;;;8.50;1.00;;;;;;4998172;28;20443;-62
2022/03/18 04:23:04;;;;;;;30.10;22.23;;;8.50;1.00;;;;;;5000999;28;20211;-62
2022/03/18 04:25:30;;;;;;;34.97;22.80;;;8.50;1.00;;;;;;4989767;28;20184;-63
2022/03/18 04:27:56;;;;;;;30.23;20.37;;;8.40;1.00;;;;;;4992417;28;20184;-63
2022/03/18 04:30:22;;;;;;;31.63;20.93;;;8.40;1.00;;;;;;4988438;28;20439;-63
2022/03/18 04:32:47;;;;;;;29.33;19.97;;;8.40;1.00;;;;;;4990091;28;20493;-63
2022/03/18 04:35:13;;;;;;;35.03;21.60;;;8.40;1.00;;;;;;4989982;28;20191;-63
2022/03/18 04:37:40;;;;;;;31.40;22.07;;;8.40;1.00;;;;;;4991692;28;20195;-63
2022/03/18 04:40:10;;;;;;;30.17;21.00;;;8.50;1.00;;;;;;4990241;28;20194;-63
2022/03/18 04:42:36;;;;;;;32.93;23.03;;;8.40;1.00;;;;;;4989122;28;20439;-63
2022/03/18 04:45:02;;;;;;;35.43;22.40;;;8.40;1.00;;;;;;4989105;28;20463;-63
2022/03/18 04:47:29;;;;;;;32.20;21.13;;;8.50;1.00;;;;;;4989900;28;20180;-63
2022/03/18 04:49:54;;;;;;;32.37;22.57;;;8.40;1.00;;;;;;4990285;28;20176;-63
2022/03/18 04:52:20;;;;;;;36.40;24.53;;;8.40;1.00;;;;;;4989060;28;20486;-63
2022/03/18 04:54:45;;;;;;;33.70;22.33;;;8.30;1.00;;;;;;4990560;28;20191;-63
2022/03/18 04:57:20;;;;;;;33.60;23.70;;;8.40;1.00;;;;;;4989214;28;20222;-63
2022/03/18 04:59:48;;;;;;;31.83;23.07;;;8.30;1.00;;;;;;4987188;28;20192;-63
2022/03/18 05:02:14;;;;;;;32.10;23.30;;;8.20;1.00;;;;;;4991001;28;20792;-62
2022/03/18 05:04:44;;;;;;;33.27;24.10;;;8.30;1.00;;;;;;4972292;28;20498;-66
2022/03/18 05:07:13;;;;;;;35.23;24.73;;;8.30;1.00;;;;;;4988128;28;20453;-65
2022/03/18 05:09:39;;;;;;;38.13;25.70;;;8.30;1.00;;;;;;4990092;28;20964;-65
2022/03/18 05:12:08;;;;;;;37.40;25.03;;;8.20;1.00;;;;;;4988057;28;20439;-65
2022/03/18 05:14:35;;;;;;;37.60;25.33;;;8.20;1.00;;;;;;4985917;28;20598;-66
2022/03/18 05:17:00;;;;;;;36.70;25.00;;;8.20;1.00;;;;;;4988464;28;20529;-66
2022/03/18 05:19:26;;;;;;;35.63;25.70;;;8.30;1.00;;;;;;4973718;28;20511;-66
2022/03/18 05:21:51;;;;;;;34.10;23.60;;;8.20;1.00;;;;;;4962929;28;20621;-66
2022/03/18 05:24:17;;;;;;;38.73;25.80;;;8.20;1.00;;;;;;4972258;28;20216;-65
2022/03/18 05:26:43;;;;;;;41.00;26.10;;;8.10;1.00;;;;;;4970031;28;20199;-65
2022/03/18 05:29:09;;;;;;;37.87;26.30;;;8.10;1.00;;;;;;4969106;28;20192;-65
2022/03/18 05:31:36;;;;;;;40.47;26.70;;;8.10;1.00;;;;;;4974997;28;20184;-65
2022/03/18 05:34:02;;;;;;;36.37;25.47;;;8.10;1.00;;;;;;4971960;28;20903;-65
2022/03/18 05:36:27;;;;;;;37.10;26.00;;;8.20;1.00;;;;;;4967284;28;20443;-65
2022/03/18 05:38:53;;;;;;;37.97;25.50;;;8.10;1.00;;;;;;4970345;28;20997;-64
2022/03/18 05:41:19;;;;;;;37.50;27.07;;;8.10;1.00;;;;;;4955913;28;20278;-64
2022/03/18 05:43:44;;;;;;;38.50;26.17;;;8.10;1.00;;;;;;4986540;28;20205;-63
2022/03/18 05:46:11;;;;;;;37.27;25.23;;;8.20;1.00;;;;;;4987813;28;20183;-65
2022/03/18 05:48:37;;;;;;;38.33;25.17;;;8.10;1.00;;;;;;4991418;28;20180;-65
2022/03/18 05:51:03;;;;;;;37.60;26.17;;;8.10;1.00;;;;;;4982965;28;20435;-65
2022/03/18 05:53:29;;;;;;;38.23;27.90;;;8.20;1.00;;;;;;4990793;28;20420;-65
2022/03/18 05:58:43;;;;;;;40.23;28.60;;;8.20;1.00;;;;;;4966443;28;21271;-64
2022/03/18 06:01:10;;;;;;;40.80;28.13;;;8.20;1.00;;;;;;4987681;28;20435;-65
2022/03/18 06:03:36;;;;;;;39.23;29.53;;;8.20;1.00;;;;;;4991430;28;20455;-65
2022/03/18 06:06:04;;;;;;;43.90;30.20;;;8.20;1.00;;;;;;4980472;28;20435;-64
2022/03/18 06:13:57;;;;;;;46.30;31.73;;;8.30;1.00;;;;;;4993103;28;20530;-65
2022/03/18 06:16:23;;;;;;;46.70;31.70;;;8.30;1.00;;;;;;4992870;28;20420;-65
2022/03/18 06:18:50;;;;;;;45.23;30.33;;;8.20;1.00;;;;;;4975900;28;20230;-66
2022/03/18 06:21:16;;;;;;;41.17;28.53;;;8.20;1.00;;;;;;4993373;28;20180;-66
2022/03/18 06:23:42;;;;;;;41.40;28.27;;;8.20;1.00;;;;;;4993570;28;20625;-65
2022/03/18 06:26:07;;;;;;;44.43;28.73;;;8.30;1.00;;;;;;4993576;28;20467;-66
2022/03/18 06:28:33;;;;;;;45.07;31.30;;;8.30;1.00;;;;;;4993388;28;20181;-65
2022/03/18 06:30:59;;;;;;;47.43;29.90;;;8.30;1.00;;;;;;4986258;28;20210;-66
2022/03/18 06:33:25;;;;;;;49.37;33.40;;;8.30;1.00;;;;;;5012864;28;20258;-66
2022/03/18 06:35:50;;;;;;;53.50;34.30;;;8.30;1.00;;;;;;5004136;28;20251;-66
2022/03/18 06:38:16;;;;;;;46.33;32.60;;;8.30;1.00;;;;;;4992373;28;20458;-67
2022/03/18 06:40:41;;;;;;;45.40;33.47;;;8.20;1.00;;;;;;4992190;28;20169;-66
2022/03/18 06:43:07;;;;;;;50.07;32.80;;;8.20;1.00;;;;;;4975052;28;20194;-66
2022/03/18 06:45:32;;;;;;;49.17;33.03;;;8.20;1.00;;;;;;4996128;28;20176;-66
2022/03/18 06:47:58;;;;;;;48.43;33.07;;;8.30;1.00;;;;;;5001639;28;20172;-66
2022/03/18 06:50:24;;;;;;;47.57;32.47;;;8.30;1.00;;;;;;4992116;28;20593;-66
2022/03/18 06:52:51;;;;;;;47.00;33.17;;;8.30;1.00;;;;;;4993213;28;20188;-65
2022/03/18 06:55:16;;;;;;;46.37;31.97;;;8.40;1.00;;;;;;4993380;28;20414;-66
2022/03/18 06:57:44;;;;;;;45.63;33.27;;;8.50;1.00;;;;;;4993603;28;20505;-64
2022/03/18 07:00:10;;;;;;;48.43;33.47;;;8.50;99.90;;;;;;4992597;28;20192;-66
2022/03/18 07:02:37;;;;;;;74.57;52.30;;;8.50;99.90;;;;;;4992749;28;20438;-66
2022/03/18 07:05:04;;;;;;;50.93;39.57;;;8.50;99.90;;;;;;4992203;28;20467;-65
2022/03/18 07:07:29;;;;;;;51.10;37.70;;;8.50;99.90;;;;;;4991799;28;20772;-64
2022/03/18 07:09:55;;;;;;;49.77;36.07;;;8.50;99.90;;;;;;4985315;28;20420;-66
2022/03/18 07:12:21;;;;;;;44.77;34.87;;;8.60;99.90;;;;;;4992317;28;20189;-65
2022/03/18 07:14:46;;;;;;;50.47;41.40;;;8.70;99.90;;;;;;4990843;28;20239;-66
2022/03/18 07:19:56;;;;;;;45.63;33.30;;;8.80;99.90;;;;;;4991872;28;20179;-64
2022/03/18 07:22:25;;;;;;;44.20;31.60;;;8.90;99.90;;;;;;4980603;28;20462;-65
2022/03/18 07:24:50;;;;;;;43.73;31.63;;;8.90;99.90;;;;;;4992058;28;20235;-65
2022/03/18 07:27:16;;;;;;;41.53;29.03;;;8.90;99.90;;;;;;4991523;28;20435;-63
2022/03/18 07:29:42;;;;;;;43.33;32.40;;;8.90;99.90;;;;;;4991514;28;20181;-64
2022/03/18 07:32:08;;;;;;;44.27;33.33;;;8.90;99.90;;;;;;4991549;28;20518;-65
2022/03/18 07:34:33;;;;;;;42.23;31.27;;;9.00;99.90;;;;;;4992919;28;20510;-65
2022/03/18 07:36:59;;;;;;;41.00;29.50;;;8.90;99.90;;;;;;4992077;28;20636;-65
2022/03/18 07:39:24;;;;;;;43.83;31.90;;;9.00;99.90;;;;;;4991683;28;20596;-65
2022/03/18 07:41:50;;;;;;;42.27;30.80;;;9.00;99.90;;;;;;4992263;28;20211;-66
2022/03/18 07:44:16;;;;;;;42.47;32.03;;;9.10;99.90;;;;;;4993416;28;20213;-64
2022/03/18 07:46:41;;;;;;;43.27;31.30;;;9.20;99.90;;;;;;4997459;28;20607;-65
2022/03/18 07:49:07;;;;;;;44.07;31.77;;;9.30;99.90;;;;;;4991926;28;20551;-66
2022/03/18 07:51:32;;;;;;;36.53;28.43;;;9.30;99.90;;;;;;4991648;28;20272;-66
2022/03/18 07:53:58;;;;;;;38.57;28.97;;;9.40;99.90;;;;;;4989500;28;20291;-66
2022/03/18 07:56:23;;;;;;;39.77;31.07;;;9.40;99.90;;;;;;4991631;28;20254;-66
2022/03/18 07:58:49;;;;;;;39.27;32.10;;;9.50;99.90;;;;;;4991260;28;20445;-65
2022/03/18 08:01:15;;;;;;;39.07;29.90;;;9.60;99.90;;;;;;4992155;28;20181;-65
2022/03/18 08:03:40;;;;;;;40.73;28.20;;;9.60;99.90;;;;;;4991244;28;20246;-63
2022/03/18 08:06:06;;;;;;;37.40;29.87;;;9.70;99.90;;;;;;4998742;28;21208;-64
2022/03/18 08:08:32;;;;;;;40.13;29.70;;;9.60;99.90;;;;;;4984487;28;20187;-65
2022/03/18 08:10:57;;;;;;;37.97;29.83;;;9.50;99.90;;;;;;4986353;28;20515;-65
2022/03/18 08:13:23;;;;;;;43.33;29.10;;;9.50;99.90;;;;;;4991150;28;20532;-65
2022/03/18 08:15:49;;;;;;;38.43;29.17;;;9.50;99.90;;;;;;4990274;28;20693;-65
2022/03/18 08:18:15;;;;;;;41.43;29.90;;;9.40;99.90;;;;;;4991233;28;20898;-65
2022/03/18 08:20:41;;;;;;;40.10;30.67;;;9.50;99.90;;;;;;4990856;28;20191;-65
2022/03/18 08:23:14;;;;;;;37.67;27.80;;;9.60;99.90;;;;;;4990943;28;20423;-64
2022/03/18 08:25:40;;;;;;;39.00;28.93;;;9.80;99.90;;;;;;4990803;28;20428;-64
2022/03/18 08:28:06;;;;;;;40.77;30.60;;;10.10;99.90;;;;;;4991684;28;20440;-64
2022/03/18 08:30:32;;;;;;;39.10;30.87;;;10.40;99.90;;;;;;4972441;28;20435;-64
2022/03/18 08:32:58;;;;;;;37.83;28.60;;;10.60;99.90;;;;;;4990909;28;20470;-62
2022/03/18 08:35:24;;;;;;;36.20;28.90;;;10.90;99.90;;;;;;4990694;28;20431;-64
2022/03/18 08:37:58;;;;;;;33.20;27.60;;;11.20;99.90;;;;;;4991611;28;20194;-65
2022/03/18 08:40:28;;;;;;;36.70;29.50;;;11.30;99.90;;;;;;4991797;28;20263;-64
2022/03/18 08:42:56;;;;;;;38.50;29.73;;;11.50;99.90;;;;;;4990426;28;20432;-64
2022/03/18 08:45:22;;;;;;;36.10;27.93;;;11.80;99.90;;;;;;4989858;28;20490;-64
2022/03/18 08:47:48;;;;;;;37.50;30.50;;;12.10;98.70;;;;;;4990783;28;20444;-65
2022/03/18 08:50:14;;;;;;;36.17;28.87;;;12.20;97.60;;;;;;4990500;28;20514;-65
2022/03/18 08:52:40;;;;;;;36.03;28.97;;;12.30;97.60;;;;;;4975044;28;20518;-65
2022/03/18 08:55:07;;;;;;;35.10;30.63;;;12.40;97.30;;;;;;4999625;28;20418;-66
2022/03/18 08:57:37;;;;;;;35.10;30.43;;;12.60;96.80;;;;;;5000287;28;20442;-64
2022/03/18 09:00:06;;;;;;;36.43;29.57;;;12.80;95.30;;;;;;4999152;28;20523;-64
2022/03/18 09:02:33;;;;;;;34.70;29.53;;;13.10;95.00;;;;;;4986253;28;20434;-63
2022/03/18 09:04:58;;;;;;;33.30;29.43;;;13.50;93.90;;;;;;4992956;28;20467;-65
2022/03/18 09:07:25;;;;;;;36.60;30.30;;;13.60;92.60;;;;;;4992251;28;20439;-64
2022/03/18 09:09:50;;;;;;;31.90;28.40;;;13.90;92.20;;;;;;4988096;28;20272;-64
2022/03/18 09:12:18;;;;;;;36.10;30.20;;;14.50;91.50;;;;;;4982761;28;20463;-64
2022/03/18 09:14:44;;;;;;;35.13;30.37;;;14.90;90.20;;;;;;4986304;28;20235;-63
2022/03/18 09:17:09;;;;;;;37.37;30.33;;;15.20;85.50;;;;;;4990019;28;20502;-63
2022/03/18 09:19:37;;;;;;;36.00;30.20;;;15.30;84.90;;;;;;4988531;28;21064;-65
2022/03/18 09:22:04;;;;;;;33.90;30.30;;;15.70;81.60;;;;;;4989412;28;20206;-64
2022/03/18 09:24:30;;;;;;;31.97;28.57;;;15.70;79.70;;;;;;4988727;28;20489;-64
2022/03/18 09:26:55;;;;;;;36.70;30.90;;;16.00;78.60;;;;;;4988940;28;20792;-64
2022/03/18 09:29:24;;;;;;;32.97;28.97;;;16.30;77.50;;;;;;4989629;28;20167;-65
2022/03/18 09:31:51;;;;;;;34.83;31.13;;;16.30;74.00;;;;;;4970234;28;20321;-64
2022/03/18 09:34:17;;;;;;;34.53;30.83;;;16.50;71.80;;;;;;4997395;28;21017;-65
2022/03/18 09:36:42;;;;;;;33.03;29.57;;;16.70;71.90;;;;;;4997456;28;20431;-64
2022/03/18 09:39:08;;;;;;;33.10;29.70;;;16.90;70.60;;;;;;4991307;28;20927;-64
2022/03/18 09:41:33;;;;;;;32.60;29.30;;;17.10;68.60;;;;;;4988470;28;20227;-62
2022/03/18 09:43:59;;;;;;;33.70;30.20;;;17.30;65.10;;;;;;4992130;28;20318;-63
2022/03/18 09:46:25;;;;;;;36.67;32.77;;;18.00;65.20;;;;;;4997907;28;20241;-64
2022/03/18 09:48:51;;;;;;;35.67;31.97;;;18.50;59.70;;;;;;4990222;28;20929;-64
2022/03/18 09:51:18;;;;;;;33.30;30.00;;;18.60;59.80;;;;;;4988466;28;20427;-64
2022/03/18 09:53:43;;;;;;;34.90;31.50;;;18.70;59.10;;;;;;4991241;28;20423;-64
2022/03/18 09:56:10;;;;;;;34.53;31.00;;;18.60;58.20;;;;;;4971406;28;20438;-64
2022/03/18 09:58:35;;;;;;;34.73;31.03;;;18.90;57.70;;;;;;4989276;28;20598;-63
2022/03/18 10:01:01;;;;;;;34.93;31.43;;;19.30;53.70;;;;;;4987317;28;20423;-63
2022/03/18 10:03:40;;;;;;;35.47;31.73;;;18.60;54.40;;;;;;4995426;28;20250;-62
2022/03/18 10:06:07;;;;;;;34.20;30.77;;;18.10;56.00;;;;;;4999641;28;20494;-64
2022/03/18 10:08:39;;;;;;;36.30;32.70;;;18.30;56.80;;;;;;4997624;28;20456;-63
2022/03/18 10:11:15;;;;;;;35.67;31.83;;;18.90;55.50;;;;;;4994551;28;20512;-63
2022/03/18 10:14:05;;;;;;;34.47;30.80;;;18.90;53.80;;;;;;4991371;28;20533;-64
2022/03/18 10:16:35;;;;;;;36.40;32.80;;;19.10;54.00;;;;;;4968804;28;20860;-62
2022/03/18 10:19:02;;;;;;;34.93;31.27;;;19.40;52.40;;;;;;4989438;28;20415;-63
2022/03/18 10:21:29;;;;;;;35.37;31.87;;;19.70;52.30;;;;;;4989667;28;20423;-63
2022/03/18 10:24:11;;;;;;;34.80;31.50;;;19.70;52.00;;;;;;4995983;28;21144;-63
2022/03/18 10:26:38;;;;;;;32.77;29.60;;;19.70;51.50;;;;;;5000677;28;20925;-64
2022/03/18 10:29:04;;;;;;;34.90;31.40;;;19.50;51.90;;;;;;4985127;28;20452;-63
2022/03/18 10:31:31;;;;;;;32.73;29.43;;;20.00;50.80;;;;;;4996851;28;20417;-62
2022/03/18 10:39:31;;;;;;;35.10;31.63;;;20.00;49.10;;;;;;4990328;28;20427;-63
2022/03/18 10:42:00;;;;;;;34.60;31.20;;;20.30;46.90;;;;;;4993703;28;20427;-62
2022/03/18 10:44:27;;;;;;;34.73;31.13;;;20.00;48.40;;;;;;5005288;28;20862;-63
2022/03/18 10:46:53;;;;;;;33.80;30.60;;;20.30;48.10;;;;;;4989037;28;20436;-64
2022/03/18 10:49:23;;;;;;;35.27;31.43;;;20.30;48.10;;;;;;4991375;28;20445;-63
2022/03/18 10:51:50;;;;;;;35.90;32.20;;;20.30;49.00;;;;;;4993927;28;21381;-63
2022/03/18 10:54:24;;;;;;;36.40;33.00;;;19.80;48.50;;;;;;4997264;28;20500;-62
2022/03/18 10:56:54;;;;;;;33.10;29.90;;;19.50;49.30;;;;;;4980861;28;20421;-63
2022/03/18 10:59:21;;;;;;;34.23;30.80;;;19.90;48.70;;;;;;4989551;28;20427;-62
2022/03/18 11:01:51;;;;;;;33.87;30.57;;;20.30;48.30;;;;;;4999407;28;20425;-63
2022/03/18 11:04:17;;;;;;;32.83;29.73;;;20.50;48.10;;;;;;4992055;28;20476;-63
2022/03/18 11:07:29;;;;;;;34.30;30.77;;;20.70;47.40;;;;;;5005001;28;20421;-62
2022/03/18 11:11:07;;;;;;;34.10;30.70;;;20.50;47.50;;;;;;4988413;28;20507;-63
2022/03/18 11:12:26;;;;;;;31.67;28.60;;;21.00;45.70;;;;;;4991096;28;21147;-63
2022/03/18 11:14:57;;;;;;;35.17;31.80;;;20.70;46.00;;;;;;4989369;28;20509;-63
2022/03/18 11:17:23;;;;;;;34.43;30.97;;;20.20;45.20;;;;;;4992067;28;20429;-63
2022/03/18 11:19:51;;;;;;;33.57;30.30;;;20.10;45.60;;;;;;4992845;28;20578;-63
2022/03/18 11:22:17;;;;;;;34.37;30.87;;;19.90;46.20;;;;;;4987493;28;20511;-62
2022/03/18 11:24:45;;;;;;;33.40;30.20;;;20.10;47.30;;;;;;4991222;28;20606;-63
2022/03/18 11:27:12;;;;;;;33.53;30.20;;;20.20;45.50;;;;;;4990304;28;20180;-63
2022/03/18 11:29:38;;;;;;;32.63;29.50;;;20.30;46.70;;;;;;4990971;28;21212;-63
2022/03/18 11:32:09;;;;;;;34.07;30.60;;;20.10;46.10;;;;;;4992872;28;20406;-63
2022/03/18 11:34:58;;;;;;;32.60;29.50;;;20.40;45.90;;;;;;4991167;28;20172;-63
2022/03/18 11:37:29;;;;;;;30.00;27.10;;;20.80;45.30;;;;;;4988999;28;20437;-63
2022/03/18 11:40:20;;;;;;;33.63;30.10;;;21.40;43.20;;;;;;4990648;28;20994;-63
2022/03/18 11:42:46;;;;;;;33.17;29.77;;;21.60;43.20;;;;;;4992565;28;20943;-63
2022/03/18 11:45:31;;;;;;;34.10;30.63;;;20.60;42.80;;;;;;4991127;28;20493;-62
2022/03/18 11:47:56;;;;;;;32.50;29.30;;;20.60;43.50;;;;;;4987951;28;20434;-62
2022/03/18 11:50:40;;;;;;;32.27;29.10;;;21.30;43.60;;;;;;4990812;28;20906;-63
2022/03/18 11:53:07;;;;;;;32.13;29.30;;;22.00;42.80;;;;;;4988655;28;20180;-63
2022/03/18 11:55:33;;;;;;;32.20;29.10;;;22.30;41.70;;;;;;4990773;28;20427;-64
2022/03/18 11:57:59;;;;;;;33.03;29.83;;;22.30;40.90;;;;;;4990418;28;20443;-63
2022/03/18 12:00:35;;;;;;;31.83;28.87;;;22.30;39.00;;;;;;4993516;28;20271;-64
2022/03/18 12:03:01;;;;;;;32.73;29.67;;;22.40;38.80;;;;;;4996221;28;20430;-63
2022/03/18 12:05:32;;;;;;;31.30;28.40;;;22.00;40.50;;;;;;4990097;28;21156;-63
2022/03/18 12:07:59;;;;;;;34.17;31.07;;;21.80;39.70;;;;;;4991685;28;20482;-63
2022/03/18 12:10:33;;;;;;;32.87;29.77;;;21.20;41.10;;;;;;4993236;28;20940;-64
2022/03/18 12:13:02;;;;;;;33.17;30.00;;;20.60;41.80;;;;;;4991147;28;20446;-63
2022/03/18 12:15:28;;;;;;;32.60;29.60;;;20.20;44.20;;;;;;4990894;28;20483;-64
2022/03/18 12:17:56;;;;;;;32.67;29.53;;;20.10;45.00;;;;;;4999664;28;20553;-64
2022/03/18 12:20:22;;;;;;;32.70;29.53;;;20.60;45.40;;;;;;4981839;28;20465;-61
2022/03/18 12:22:49;;;;;;;31.20;28.17;;;21.00;44.20;;;;;;4981444;28;20430;-63
2022/03/18 12:25:16;;;;;;;31.90;28.70;;;21.60;44.00;;;;;;4988002;28;20238;-63
2022/03/18 12:27:44;;;;;;;32.70;29.50;;;22.10;42.50;;;;;;4990330;28;20503;-63
2022/03/18 12:30:25;;;;;;;30.33;27.53;;;22.40;41.10;;;;;;4975028;28;20404;-64
2022/03/18 12:32:59;;;;;;;29.97;27.10;;;22.70;40.40;;;;;;4976718;28;20416;-64
2022/03/18 12:35:29;;;;;;;31.57;28.57;;;22.70;39.00;;;;;;4992217;28;20462;-64
2022/03/18 12:38:14;;;;;;;31.50;28.63;;;22.40;40.40;;;;;;4993133;28;20518;-64
2022/03/18 12:40:53;;;;;;;33.03;29.93;;;22.10;39.50;;;;;;4999253;28;20439;-64
2022/03/18 12:43:18;;;;;;;33.23;30.20;;;21.40;40.30;;;;;;4993187;28;20476;-63
2022/03/18 12:45:45;;;;;;;32.03;28.90;;;20.50;40.10;;;;;;5005093;28;20428;-64
2022/03/18 12:48:16;;;;;;;32.60;29.40;;;19.80;43.30;;;;;;5002232;28;20240;-63
2022/03/18 12:50:47;;;;;;;33.17;30.10;;;19.10;43.90;;;;;;4997117;28;20497;-64
2022/03/18 12:53:20;;;;;;;31.20;28.17;;;18.70;43.80;;;;;;4997077;28;20509;-64
2022/03/18 12:55:50;;;;;;;31.00;28.00;;;18.60;45.20;;;;;;4992778;28;20483;-64
2022/03/18 12:58:16;;;;;;;30.30;27.40;;;19.00;45.20;;;;;;4987344;28;20464;-64
2022/03/18 13:00:55;;;;;;;31.77;28.77;;;19.60;44.70;;;;;;4990594;28;20491;-64
2022/03/18 13:03:25;;;;;;;32.13;29.03;;;20.30;42.70;;;;;;4986833;28;20482;-63
2022/03/18 13:05:52;;;;;;;33.77;30.47;;;21.20;41.60;;;;;;4983781;28;20449;-63